OINR  Ramsar Airport

Add Bookmark

Iran

Status IATA
Operational RZR
Latitude Longitude
36° 54' 35" N 50° 40' 46" E
36.909901 50.679600
Local (DST + 5) UTC (GMT + 4)
Oct 25, 2014 12:56 Oct 25, 2014 09:26
Sunrise-Sunset Local UTC
Begin Civil Twilight 05:56 02:26
Sunrise 06:23 02:53
Sunset 05:19 13:49
End Civil Twilight 05:46 14:16

Current Weather

METAR Observed VFR
OINR 250900Z 06004KT 9999 FEW020CB SCT025 BKN090 20/15 Q1013 Sat, Oct 25, 2014 @ 09:00 UTC
(26 Minutes ago)
Visual Flight Rules
Wind Visibility Clouds Conditions
060° at 4 knots (7 kph) 10 km or more
  • Few at 2,000' AGL
  • Scattered at 2,500' AGL
  • Broken at 9,000' AGL
  • No significant weather
Temperatures Readings Precipitation
Current Temp 20°C (68°F)
Dewpoint 15°C (59°F)
Humidity 73%
Altimeter 29.91"Hg
Sea Level Pressure 1013mb
None Recorded

Additional weather within a 92.6km radius of OINR

Map ICAO Location
OINN 75km E (111°)

24 Hour Weather History

Loading
-

24 Hour Weather Graphs

Loading
-

CheckWX.com is intended as a tool to help pilots better visualize weather data. It is not intended as a substitute for an official weather briefing obtained from a Flight Service Station. CheckWX.com does not meet the FAA requirements for an official pre-flight weather briefing. Therefore, it's important that pilots still call and obtain an official FSS pre-flight weather briefing.